Vegreville, Canada
Current Conditions -  °F | °C
As of 2:00 PM on Tuesday 21 Oct 2014 (Local Time) from CYED Reporting Station
Few Clouds Few Clouds  
Wind Chill: 57°   Ceiling: Unl
Heat Index: 57°   Visibility: 9mi
Dew Point: 37°   Wind: 0mph
Humidity: 48%   Direction: NA
Pressure: 29.62"   Gusts: NA
Location:  53.5°N, 112.05°W
Report Text: CYED 212000Z AUTO 00000KT 9SM FEW085 14/03 A2962 RMK SLP040
Loading
Personal Weather Stations






























Interactive Weather Map
Tropical Storm Tracking
New forecast layout! Learn more

10-Day Weather Forecast

Advertisements
Track Severe Weather on mobile